createdAt,value
2019-05-19T00:00:55.299Z,12.60
2019-05-19T00:03:25.492Z,12.50
2019-05-19T00:05:55.642Z,12.50
2019-05-19T00:08:25.701Z,12.60
2019-05-19T00:10:55.712Z,12.50
2019-05-19T00:13:25.864Z,12.40
2019-05-19T00:15:55.997Z,12.50
2019-05-19T00:18:26.190Z,12.50
2019-05-19T00:20:56.287Z,12.60
2019-05-19T00:23:26.500Z,12.60
2019-05-19T00:25:56.532Z,12.40
2019-05-19T00:28:26.620Z,12.50
2019-05-19T00:30:56.960Z,12.50
2019-05-19T00:33:27.226Z,12.60
2019-05-19T00:35:57.639Z,12.70
2019-05-19T00:38:27.711Z,12.70
2019-05-19T00:40:58.114Z,12.80
2019-05-19T00:43:28.388Z,12.70
2019-05-19T00:45:59.084Z,12.70
2019-05-19T00:48:29.501Z,12.70
2019-05-19T00:51:00.058Z,12.70
2019-05-19T00:53:30.451Z,12.60
2019-05-19T00:56:02.180Z,12.50
2019-05-19T00:58:34.487Z,12.50
2019-05-19T01:01:04.730Z,12.50
2019-05-19T01:03:35.217Z,12.40
2019-05-19T01:06:05.548Z,12.50
2019-05-19T01:08:35.623Z,12.70
2019-05-19T01:11:06.354Z,12.60
2019-05-19T01:13:36.729Z,12.70
2019-05-19T01:16:07.012Z,12.60
2019-05-19T01:18:37.160Z,12.50
2019-05-19T01:21:08.093Z,12.50
2019-05-19T01:23:38.550Z,12.60
2019-05-19T01:26:08.969Z,12.60
2019-05-19T01:28:39.517Z,12.60
2019-05-19T01:31:10.239Z,12.60
2019-05-19T01:33:40.317Z,12.60
2019-05-19T01:36:10.422Z,12.50
2019-05-19T01:38:40.656Z,12.50
2019-05-19T01:41:10.794Z,12.50
2019-05-19T01:43:40.874Z,12.50
2019-05-19T01:46:11.050Z,12.40
2019-05-19T01:48:41.234Z,12.50
2019-05-19T01:51:11.487Z,12.50
2019-05-19T01:53:41.599Z,12.60
2019-05-19T01:56:11.616Z,12.50
2019-05-19T01:58:41.550Z,12.50
2019-05-19T02:01:11.646Z,12.60
2019-05-19T02:03:41.989Z,12.70
2019-05-19T02:06:12.169Z,12.80
2019-05-19T02:08:42.414Z,12.60
2019-05-19T02:11:12.686Z,12.60
2019-05-19T02:13:43.222Z,12.60
2019-05-19T02:16:13.440Z,12.50
2019-05-19T02:18:43.582Z,12.50
2019-05-19T02:21:13.768Z,12.40
2019-05-19T02:23:43.868Z,12.40
2019-05-19T02:26:14.196Z,12.40
2019-05-19T02:28:44.310Z,12.50
2019-05-19T02:31:14.286Z,12.50
2019-05-19T02:33:44.344Z,12.50
2019-05-19T02:36:14.569Z,12.40
2019-05-19T02:38:44.831Z,12.20
2019-05-19T02:41:17.520Z,12.20
2019-05-19T02:43:48.252Z,12.20
2019-05-19T02:46:19.050Z,12.10
2019-05-19T02:48:50.205Z,12.20
2019-05-19T02:51:21.691Z,12.20
2019-05-19T02:53:52.222Z,12.10
2019-05-19T02:56:22.764Z,12.20
2019-05-19T02:58:54.359Z,12.10
2019-05-19T03:01:24.361Z,12.20
2019-05-19T03:03:54.495Z,12.20
2019-05-19T03:06:24.499Z,12.30
2019-05-19T03:08:54.628Z,12.20
2019-05-19T03:11:24.488Z,12.30
2019-05-19T03:13:54.609Z,12.40
2019-05-19T03:16:24.801Z,12.40
2019-05-19T03:18:54.940Z,12.30
2019-05-19T03:21:25.042Z,12.20
2019-05-19T03:23:55.358Z,12.10
2019-05-19T03:26:25.569Z,12.20
2019-05-19T03:28:55.705Z,12.20
2019-05-19T03:31:30.388Z,12.20
2019-05-19T03:34:02.262Z,12.20
2019-05-19T03:36:33.181Z,12.30
2019-05-19T03:39:04.891Z,12.20
2019-05-19T03:41:35.224Z,12.10
2019-05-19T03:44:05.596Z,12.00
2019-05-19T03:46:35.767Z,12.00
2019-05-19T03:49:06.049Z,11.90
2019-05-19T03:51:36.450Z,11.90
2019-05-19T03:54:06.801Z,12.00
2019-05-19T03:56:37.049Z,12.00
2019-05-19T03:59:07.370Z,12.00
2019-05-19T04:01:37.563Z,12.00
2019-05-19T04:04:07.935Z,12.00
2019-05-19T04:06:38.693Z,11.90
2019-05-19T04:09:08.909Z,11.90
2019-05-19T04:11:39.107Z,11.80
2019-05-19T04:14:09.330Z,11.90
2019-05-19T04:16:39.617Z,11.90
2019-05-19T04:19:09.764Z,11.90
2019-05-19T04:21:48.712Z,12.00
2019-05-19T04:24:11.866Z,11.90
2019-05-19T04:26:42.318Z,12.10
2019-05-19T04:29:12.838Z,12.00
2019-05-19T04:31:43.159Z,12.00
2019-05-19T04:34:13.267Z,11.90
2019-05-19T04:36:43.386Z,12.00
2019-05-19T04:39:13.717Z,12.10
2019-05-19T04:41:44.239Z,12.20
2019-05-19T04:44:14.236Z,12.20
2019-05-19T04:46:44.357Z,12.00
2019-05-19T04:49:14.694Z,11.90
2019-05-19T04:51:44.728Z,12.00
2019-05-19T04:54:14.912Z,11.90
2019-05-19T04:56:45.040Z,11.90
2019-05-19T04:59:15.165Z,11.90
2019-05-19T05:01:45.262Z,11.90
2019-05-19T05:04:15.437Z,12.00
2019-05-19T05:06:45.645Z,12.10
2019-05-19T05:09:15.695Z,12.10
2019-05-19T05:11:46.102Z,12.20
2019-05-19T05:14:16.535Z,12.30
2019-05-19T05:16:48.584Z,12.30
2019-05-19T05:19:18.907Z,12.40
2019-05-19T05:21:49.253Z,12.40
2019-05-19T05:24:19.499Z,12.40
2019-05-19T05:26:49.783Z,12.20
2019-05-19T05:29:20.037Z,12.20
2019-05-19T05:31:50.239Z,12.30
2019-05-19T05:34:21.433Z,12.40
2019-05-19T05:36:51.629Z,12.60
2019-05-19T05:39:21.737Z,12.50
2019-05-19T05:41:51.832Z,12.50
2019-05-19T05:44:22.043Z,12.50
2019-05-19T05:46:52.037Z,12.60
2019-05-19T05:49:23.169Z,12.50
2019-05-19T05:51:53.415Z,12.60
2019-05-19T05:54:23.767Z,12.70
2019-05-19T05:56:53.982Z,12.60
2019-05-19T05:59:23.990Z,12.60
2019-05-19T06:01:54.023Z,12.60
2019-05-19T06:04:24.516Z,12.50
2019-05-19T06:06:54.785Z,12.50
2019-05-19T06:09:24.763Z,12.70
2019-05-19T06:11:54.996Z,12.80
2019-05-19T06:14:25.119Z,12.80
2019-05-19T06:16:55.075Z,12.60
2019-05-19T06:19:25.262Z,12.70
2019-05-19T06:21:55.597Z,12.70
2019-05-19T06:24:25.824Z,12.60
2019-05-19T06:26:55.812Z,12.60
2019-05-19T06:29:25.796Z,12.70
2019-05-19T06:31:57.500Z,12.70
2019-05-19T06:34:27.495Z,12.70
2019-05-19T06:36:57.827Z,12.60
2019-05-19T06:39:28.093Z,12.50
2019-05-19T06:41:58.523Z,12.60
2019-05-19T06:44:28.618Z,12.70
2019-05-19T06:46:58.729Z,12.80
2019-05-19T06:49:29.376Z,12.80
2019-05-19T06:51:59.501Z,12.90
2019-05-19T06:54:29.574Z,12.90
2019-05-19T06:57:00.045Z,12.90
2019-05-19T06:59:30.086Z,13.00
2019-05-19T07:02:00.402Z,13.10
2019-05-19T07:04:30.490Z,13.20
2019-05-19T07:07:01.094Z,13.20
2019-05-19T07:09:31.254Z,13.30
2019-05-19T07:12:02.005Z,13.40
2019-05-19T07:14:32.302Z,13.60
2019-05-19T07:17:02.448Z,13.80
2019-05-19T07:19:34.266Z,13.60
2019-05-19T07:22:04.745Z,13.50
2019-05-19T07:24:35.059Z,13.60
2019-05-19T07:27:05.173Z,13.70
2019-05-19T07:29:35.025Z,13.70
2019-05-19T07:32:05.327Z,14.00
2019-05-19T07:34:35.561Z,14.20
2019-05-19T07:37:05.652Z,14.40
2019-05-19T07:39:35.626Z,14.50
2019-05-19T07:42:05.872Z,14.70
2019-05-19T07:44:35.901Z,14.50
2019-05-19T07:47:05.823Z,14.40
2019-05-19T07:49:35.940Z,14.50
2019-05-19T07:52:06.034Z,14.50
2019-05-19T07:54:36.174Z,14.60
2019-05-19T07:57:06.434Z,14.70
2019-05-19T07:59:36.492Z,14.90
2019-05-19T08:02:06.857Z,15.00
2019-05-19T08:04:37.052Z,15.10
2019-05-19T08:07:07.388Z,14.90
2019-05-19T08:09:37.608Z,14.90
2019-05-19T08:12:07.611Z,15.00
2019-05-19T08:14:37.788Z,15.10
2019-05-19T08:17:07.885Z,15.00
2019-05-19T08:19:38.073Z,15.10
2019-05-19T08:22:07.988Z,15.20
2019-05-19T08:24:38.562Z,15.30
2019-05-19T08:27:08.564Z,15.20
2019-05-19T08:29:38.650Z,15.30
2019-05-19T08:32:09.058Z,15.30
2019-05-19T08:34:39.510Z,15.10
2019-05-19T08:37:09.724Z,14.90
2019-05-19T08:39:39.757Z,14.90
2019-05-19T08:42:10.099Z,14.90
2019-05-19T08:44:40.337Z,15.00
2019-05-19T08:47:10.652Z,15.00
2019-05-19T08:49:40.761Z,14.80
2019-05-19T08:52:10.909Z,15.00
2019-05-19T08:54:40.860Z,15.00
2019-05-19T08:57:10.984Z,15.10
2019-05-19T08:59:40.838Z,15.10
2019-05-19T09:02:10.721Z,15.00
2019-05-19T09:04:40.586Z,15.00
2019-05-19T09:07:10.422Z,15.40
2019-05-19T09:09:40.279Z,15.30
2019-05-19T09:12:10.401Z,15.50
2019-05-19T09:14:40.305Z,15.90
2019-05-19T09:17:10.201Z,16.10
2019-05-19T09:19:40.009Z,16.30
2019-05-19T09:22:09.966Z,16.60
2019-05-19T09:24:40.255Z,17.00
2019-05-19T09:27:10.614Z,16.90
2019-05-19T09:29:40.434Z,16.70
2019-05-19T09:32:10.281Z,16.60
2019-05-19T09:34:40.134Z,17.60
2019-05-19T09:37:11.807Z,18.10
2019-05-19T09:39:43.230Z,18.20
2019-05-19T09:42:14.719Z,18.20
2019-05-19T09:44:44.550Z,18.80
2019-05-19T09:47:17.317Z,18.90
2019-05-19T09:49:47.512Z,19.20
2019-05-19T09:52:18.750Z,19.20
2019-05-19T09:54:48.606Z,19.60
2019-05-19T09:57:18.461Z,20.40
2019-05-19T09:59:48.373Z,20.90
2019-05-19T10:02:18.195Z,21.50
2019-05-19T10:04:48.038Z,22.00
2019-05-19T10:07:17.942Z,22.30
2019-05-19T10:09:56.900Z,22.10
2019-05-19T10:12:26.880Z,21.50
2019-05-19T10:15:00.262Z,21.30
2019-05-19T10:17:30.249Z,21.90
2019-05-19T10:20:00.094Z,21.80
2019-05-19T10:22:29.990Z,22.40
2019-05-19T10:25:20.571Z,22.30
2019-05-19T10:27:31.300Z,22.80
2019-05-19T10:30:01.197Z,22.90
2019-05-19T10:32:31.047Z,22.80
2019-05-19T10:35:00.965Z,23.10
2019-05-19T10:37:30.928Z,22.80
2019-05-19T10:40:00.787Z,22.60
2019-05-19T10:42:30.700Z,22.40
2019-05-19T10:45:00.546Z,22.10
2019-05-19T10:47:30.399Z,22.00
2019-05-19T10:50:00.317Z,21.80
2019-05-19T10:52:31.964Z,21.80
2019-05-19T10:55:01.836Z,21.40
2019-05-19T10:57:31.695Z,20.90
2019-05-19T11:00:01.536Z,20.80
2019-05-19T11:02:31.407Z,21.20
2019-05-19T11:05:01.269Z,21.80
2019-05-19T11:07:31.110Z,21.50
2019-05-19T11:10:00.970Z,21.60
2019-05-19T11:12:31.130Z,22.10
2019-05-19T11:15:00.981Z,22.40
2019-05-19T11:17:30.827Z,22.00
2019-05-19T11:20:00.735Z,22.20
2019-05-19T11:22:30.535Z,22.60
2019-05-19T11:25:00.444Z,22.90
2019-05-19T11:27:30.301Z,23.20
2019-05-19T11:30:00.163Z,22.80
2019-05-19T11:32:30.029Z,22.60
2019-05-19T11:35:01.280Z,22.50
2019-05-19T11:37:42.094Z,22.80
2019-05-19T11:40:36.097Z,23.30
2019-05-19T11:43:05.938Z,23.60
2019-05-19T11:45:35.907Z,23.20
2019-05-19T11:48:05.854Z,23.30
2019-05-19T11:50:35.743Z,23.30
2019-05-19T11:53:05.589Z,23.10
2019-05-19T11:55:35.370Z,22.80
2019-05-19T11:58:05.373Z,22.80
2019-05-19T12:00:36.699Z,22.60
2019-05-19T12:03:06.530Z,22.30
2019-05-19T12:05:36.411Z,22.00
2019-05-19T12:08:06.281Z,22.20
2019-05-19T12:10:36.103Z,22.30
2019-05-19T12:13:05.986Z,22.20
2019-05-19T12:15:35.856Z,22.60
2019-05-19T12:18:05.777Z,22.80
2019-05-19T12:20:35.680Z,22.70
2019-05-19T12:23:05.535Z,22.50
2019-05-19T12:25:35.384Z,22.70
2019-05-19T12:28:05.232Z,22.60
2019-05-19T12:30:35.102Z,21.90
2019-05-19T12:33:05.050Z,22.20
2019-05-19T12:35:34.959Z,22.50
2019-05-19T12:38:04.891Z,22.60
2019-05-19T12:40:34.768Z,22.70
2019-05-19T12:43:04.692Z,23.10
2019-05-19T12:45:36.331Z,23.10
2019-05-19T12:48:06.475Z,23.10
2019-05-19T12:50:36.327Z,23.10
2019-05-19T12:53:06.281Z,22.90
2019-05-19T12:55:36.093Z,22.70
2019-05-19T12:58:05.993Z,22.10
2019-05-19T13:00:35.996Z,21.80
2019-05-19T13:03:05.833Z,22.00
2019-05-19T13:05:35.852Z,22.10
2019-05-19T13:08:05.697Z,22.40
2019-05-19T13:10:35.740Z,22.50
2019-05-19T13:13:05.695Z,22.50
2019-05-19T13:15:35.513Z,22.60
2019-05-19T13:18:05.439Z,22.70
2019-05-19T13:20:35.273Z,22.60
2019-05-19T13:23:05.138Z,22.60
2019-05-19T13:25:35.003Z,22.70
2019-05-19T13:28:04.924Z,22.60
2019-05-19T13:30:34.831Z,22.10
2019-05-19T13:33:04.782Z,21.80
2019-05-19T13:35:34.661Z,22.20
2019-05-19T13:38:04.577Z,22.50
2019-05-19T13:40:34.493Z,22.80
2019-05-19T13:43:04.422Z,22.70
2019-05-19T13:45:34.234Z,22.30
2019-05-19T13:48:04.133Z,22.00
2019-05-19T13:50:33.984Z,21.80
2019-05-19T13:53:03.803Z,21.80
2019-05-19T13:55:33.645Z,21.50
2019-05-19T13:58:03.742Z,21.70
2019-05-19T14:00:33.625Z,21.70
2019-05-19T14:03:03.522Z,21.80
2019-05-19T14:05:34.788Z,21.90
2019-05-19T14:08:06.359Z,22.00
2019-05-19T14:10:36.281Z,22.10
2019-05-19T14:13:06.096Z,22.20
2019-05-19T14:15:36.068Z,22.00
2019-05-19T14:18:05.993Z,22.20
2019-05-19T14:20:37.693Z,22.20
2019-05-19T14:23:08.801Z,22.10
2019-05-19T14:25:38.621Z,22.10
2019-05-19T14:28:08.458Z,22.00
2019-05-19T14:30:38.367Z,22.00
2019-05-19T14:33:09.964Z,22.00
2019-05-19T14:35:39.821Z,22.10
2019-05-19T14:38:09.691Z,22.40
2019-05-19T14:40:40.918Z,22.40
2019-05-19T14:43:11.364Z,22.30
2019-05-19T14:45:41.250Z,22.20
2019-05-19T14:48:11.194Z,22.30
2019-05-19T14:50:40.995Z,22.00
2019-05-19T14:53:10.846Z,21.90
2019-05-19T14:55:40.657Z,21.80
2019-05-19T14:58:10.631Z,21.80
2019-05-19T15:00:40.491Z,21.40
2019-05-19T15:03:10.387Z,21.30
2019-05-19T15:05:40.351Z,21.30
2019-05-19T15:08:10.193Z,21.30
2019-05-19T15:10:40.054Z,21.50
2019-05-19T15:13:09.893Z,21.40
2019-05-19T15:15:39.714Z,21.30
2019-05-19T15:18:09.653Z,21.20
2019-05-19T15:20:40.586Z,21.40
2019-05-19T15:23:10.618Z,21.60
2019-05-19T15:25:40.630Z,21.60
2019-05-19T15:28:10.488Z,21.40
2019-05-19T15:30:43.411Z,21.20
2019-05-19T15:33:13.367Z,20.90
2019-05-19T15:35:43.202Z,21.00
2019-05-19T15:38:13.557Z,21.00
2019-05-19T15:40:43.488Z,20.90
2019-05-19T15:43:13.417Z,20.80
2019-05-19T15:45:43.283Z,20.80
2019-05-19T15:48:13.105Z,20.90
2019-05-19T15:50:42.973Z,20.40
2019-05-19T15:53:12.957Z,20.30
2019-05-19T15:55:42.772Z,20.50
2019-05-19T15:58:16.600Z,20.50
2019-05-19T16:00:44.077Z,20.20
2019-05-19T16:03:14.047Z,20.20
2019-05-19T16:05:43.919Z,20.10
2019-05-19T16:08:13.787Z,19.90
2019-05-19T16:10:43.786Z,20.10
2019-05-19T16:13:13.651Z,20.30
2019-05-19T16:15:43.571Z,20.30
2019-05-19T16:18:13.403Z,20.10
2019-05-19T16:20:43.299Z,19.70
2019-05-19T16:23:13.126Z,19.50
2019-05-19T16:25:43.163Z,19.50
2019-05-19T16:28:15.032Z,19.40
2019-05-19T16:30:45.341Z,19.60
2019-05-19T16:33:15.307Z,19.70
2019-05-19T16:35:45.176Z,19.80
2019-05-19T16:38:15.323Z,19.80
2019-05-19T16:40:45.396Z,19.70
2019-05-19T16:43:15.645Z,19.60
2019-05-19T16:45:47.151Z,19.40
2019-05-19T16:48:17.805Z,19.30
2019-05-19T16:50:48.557Z,19.40
2019-05-19T16:53:18.721Z,19.20
2019-05-19T16:55:51.198Z,19.20
2019-05-19T16:58:21.862Z,19.20
2019-05-19T17:00:51.830Z,19.10
2019-05-19T17:03:21.825Z,18.70
2019-05-19T17:05:51.697Z,18.70
2019-05-19T17:08:21.594Z,18.80
2019-05-19T17:10:51.477Z,18.70
2019-05-19T17:13:21.378Z,18.80
2019-05-19T17:15:51.207Z,18.90
2019-05-19T17:18:21.073Z,19.00
2019-05-19T17:20:50.912Z,18.70
2019-05-19T17:23:20.828Z,18.60
2019-05-19T17:25:50.676Z,18.60
2019-05-19T17:28:20.505Z,18.50
2019-05-19T17:30:50.362Z,18.50
2019-05-19T17:33:20.272Z,18.50
2019-05-19T17:35:50.610Z,18.50
2019-05-19T17:38:20.435Z,18.60
2019-05-19T17:40:50.290Z,18.60
2019-05-19T17:43:20.113Z,18.60
2019-05-19T17:45:50.001Z,18.40
2019-05-19T17:48:26.574Z,18.20
2019-05-19T17:50:51.488Z,17.90
2019-05-19T17:53:21.790Z,17.60
2019-05-19T17:55:55.460Z,17.50
2019-05-19T17:58:26.106Z,17.20
2019-05-19T18:00:56.007Z,17.10
2019-05-19T18:03:26.863Z,17.00
2019-05-19T18:05:56.727Z,17.00
2019-05-19T18:08:26.609Z,16.70
2019-05-19T18:10:56.486Z,16.60
2019-05-19T18:13:26.633Z,16.40
2019-05-19T18:15:56.520Z,16.10
2019-05-19T18:18:26.417Z,16.00
2019-05-19T18:20:56.269Z,16.00
2019-05-19T18:23:27.100Z,16.00
2019-05-19T18:25:56.955Z,16.10
2019-05-19T18:28:26.786Z,16.20
2019-05-19T18:30:56.666Z,16.10
2019-05-19T18:33:26.569Z,15.90
2019-05-19T18:35:56.402Z,15.80
2019-05-19T18:38:26.354Z,15.60
2019-05-19T18:40:56.233Z,15.70
2019-05-19T18:43:26.090Z,15.60
2019-05-19T18:45:56.157Z,15.50
2019-05-19T18:48:26.286Z,15.50
2019-05-19T18:50:56.127Z,15.50
2019-05-19T18:53:26.648Z,15.30
2019-05-19T18:55:56.470Z,15.30
2019-05-19T18:58:26.307Z,15.10
2019-05-19T19:00:56.302Z,15.10
2019-05-19T19:03:26.313Z,15.00
2019-05-19T19:05:56.245Z,15.00
2019-05-19T19:08:26.085Z,15.00
2019-05-19T19:10:56.027Z,14.90
2019-05-19T19:13:27.294Z,14.90
2019-05-19T19:15:57.104Z,15.00
2019-05-19T19:18:27.047Z,15.00
2019-05-19T19:20:56.935Z,15.10
2019-05-19T19:23:26.795Z,15.10
2019-05-19T19:25:56.716Z,15.00
2019-05-19T19:28:40.418Z,14.90
2019-05-19T19:31:10.288Z,14.90
2019-05-19T19:33:40.112Z,14.80
2019-05-19T19:36:09.966Z,14.80
2019-05-19T19:38:39.834Z,14.80
2019-05-19T19:41:09.704Z,14.80
2019-05-19T19:43:39.509Z,14.70
2019-05-19T19:46:09.362Z,14.80
2019-05-19T19:48:39.281Z,14.70
2019-05-19T19:51:09.188Z,14.70
2019-05-19T19:53:39.009Z,14.60
2019-05-19T19:56:08.858Z,14.60
2019-05-19T19:58:38.711Z,14.70
2019-05-19T20:01:08.683Z,14.80
2019-05-19T20:03:40.297Z,14.80
2019-05-19T20:06:09.969Z,14.70
2019-05-19T20:08:39.837Z,14.80
2019-05-19T20:11:09.782Z,14.70
2019-05-19T20:13:39.654Z,14.70
2019-05-19T20:16:11.813Z,14.70
2019-05-19T20:18:41.725Z,14.60
2019-05-19T20:21:11.677Z,14.50
2019-05-19T20:23:41.576Z,14.40
2019-05-19T20:26:11.405Z,14.60
2019-05-19T20:28:41.297Z,14.60
2019-05-19T20:31:11.250Z,14.50
2019-05-19T20:33:41.174Z,14.60
2019-05-19T20:36:11.112Z,14.50
2019-05-19T20:38:41.016Z,14.50
2019-05-19T20:41:10.974Z,14.50
2019-05-19T20:43:40.807Z,14.50
2019-05-19T20:46:10.657Z,14.60
2019-05-19T20:48:40.548Z,14.60
2019-05-19T20:51:11.130Z,14.70
2019-05-19T20:53:41.086Z,14.70
2019-05-19T20:56:11.051Z,14.70
2019-05-19T20:58:41.013Z,14.60
2019-05-19T21:01:11.579Z,14.60
2019-05-19T21:03:41.481Z,14.50
2019-05-19T21:06:11.411Z,14.40
2019-05-19T21:08:41.380Z,14.50
2019-05-19T21:11:11.254Z,14.50
2019-05-19T21:13:41.064Z,14.60
2019-05-19T21:16:10.895Z,14.70
2019-05-19T21:18:40.803Z,14.70
2019-05-19T21:21:10.659Z,14.60
2019-05-19T21:23:40.553Z,14.50
2019-05-19T21:26:10.567Z,14.50
2019-05-19T21:28:40.420Z,14.60
2019-05-19T21:31:10.237Z,14.60
2019-05-19T21:33:40.111Z,14.60
2019-05-19T21:36:09.962Z,14.60
2019-05-19T21:38:39.835Z,14.60
2019-05-19T21:41:09.693Z,14.60
2019-05-19T21:43:39.635Z,14.60
2019-05-19T21:46:09.751Z,14.60
2019-05-19T21:48:39.628Z,14.50
2019-05-19T21:51:09.509Z,14.20
2019-05-19T21:53:39.382Z,14.10
2019-05-19T21:56:09.203Z,14.10
2019-05-19T21:58:39.161Z,14.00
2019-05-19T22:01:22.247Z,14.10
2019-05-19T22:03:40.990Z,14.00
2019-05-19T22:06:10.917Z,14.00
2019-05-19T22:08:40.768Z,14.00
2019-05-19T22:11:10.729Z,13.90
2019-05-19T22:13:40.558Z,14.00
2019-05-19T22:16:13.240Z,13.90
2019-05-19T22:18:42.004Z,13.80
2019-05-19T22:21:11.843Z,13.80
2019-05-19T22:23:41.754Z,13.90
2019-05-19T22:26:11.657Z,13.90
2019-05-19T22:28:41.618Z,13.90
2019-05-19T22:31:11.464Z,13.90
2019-05-19T22:33:41.301Z,13.80
2019-05-19T22:36:11.131Z,13.90
2019-05-19T22:38:41.145Z,13.80
2019-05-19T22:41:10.996Z,13.70
2019-05-19T22:43:40.879Z,13.50
2019-05-19T22:46:10.704Z,13.40
2019-05-19T22:48:40.554Z,13.40
2019-05-19T22:51:10.394Z,13.40
2019-05-19T22:53:40.253Z,13.30
2019-05-19T22:56:10.155Z,13.30
2019-05-19T22:58:41.635Z,13.30
2019-05-19T23:01:11.759Z,13.40
2019-05-19T23:03:41.594Z,13.40
2019-05-19T23:06:11.653Z,13.40
2019-05-19T23:08:41.511Z,13.40
2019-05-19T23:11:11.340Z,13.40
2019-05-19T23:13:41.169Z,13.20
2019-05-19T23:16:11.106Z,13.20
2019-05-19T23:18:40.968Z,13.20
2019-05-19T23:21:10.813Z,13.30
2019-05-19T23:23:41.010Z,13.30
2019-05-19T23:26:10.955Z,13.40
2019-05-19T23:28:40.764Z,13.40
2019-05-19T23:31:10.650Z,13.30
2019-05-19T23:33:40.487Z,13.30
2019-05-19T23:36:10.453Z,13.30
2019-05-19T23:38:40.324Z,13.20
2019-05-19T23:41:10.193Z,13.30
2019-05-19T23:43:39.969Z,13.30
2019-05-19T23:46:09.797Z,13.30
2019-05-19T23:48:39.795Z,13.20
2019-05-19T23:51:09.639Z,13.20
2019-05-19T23:53:39.550Z,13.20
2019-05-19T23:56:09.426Z,13.30
2019-05-19T23:58:39.320Z,13.40
